createdAt,value
2022-12-14T00:00:07.009Z,96638.58
2022-12-14T00:02:39.108Z,96646.75
2022-12-14T00:05:12.165Z,96651.40
2022-12-14T00:07:46.069Z,96640.76
2022-12-14T00:10:21.144Z,96647.02
2022-12-14T00:12:54.082Z,96656.05
2022-12-14T00:15:25.276Z,96648.13
2022-12-14T00:18:15.677Z,96654.39
2022-12-14T00:20:45.347Z,96645.67
2022-12-14T00:23:15.774Z,96657.13
2022-12-14T00:25:48.881Z,96650.31
2022-12-14T00:28:20.328Z,96649.50
2022-12-14T00:30:58.020Z,96622.54
2022-12-14T00:33:24.945Z,96617.89
2022-12-14T00:35:56.104Z,96635.33
2022-12-14T00:38:27.676Z,96648.96
2022-12-14T00:40:58.159Z,96660.97
2022-12-14T00:43:27.982Z,96663.14
2022-12-14T00:45:58.013Z,96667.79
2022-12-14T00:48:28.781Z,96679.25
2022-12-14T00:50:59.931Z,96680.61
2022-12-14T00:53:30.027Z,96681.97
2022-12-14T00:56:00.075Z,96672.14
2022-12-14T00:58:31.634Z,96667.80
2022-12-14T01:01:06.650Z,96676.53
2022-12-14T01:03:36.995Z,96692.08
2022-12-14T01:06:08.191Z,96686.63
2022-12-14T01:08:38.315Z,96678.16
2022-12-14T01:11:10.112Z,96692.89
2022-12-14T01:13:40.354Z,96687.16
2022-12-14T01:16:19.881Z,96680.63
2022-12-14T01:18:45.826Z,96677.91
2022-12-14T01:21:24.406Z,96682.55
2022-12-14T01:23:56.845Z,96683.91
2022-12-14T01:26:27.087Z,96696.18
2022-12-14T01:29:02.812Z,96693.17
2022-12-14T01:31:35.072Z,96704.07
2022-12-14T01:34:05.765Z,96707.90
2022-12-14T01:36:36.202Z,96709.81
2022-12-14T01:39:10.448Z,96704.92
2022-12-14T01:41:47.961Z,96707.91
2022-12-14T01:44:20.732Z,96694.28
2022-12-14T01:47:12.707Z,96683.94
2022-12-14T01:49:48.569Z,96671.66
2022-12-14T01:52:37.840Z,96672.48
2022-12-14T01:55:13.165Z,96667.03
2022-12-14T01:58:01.005Z,96680.11
2022-12-14T02:00:31.079Z,96691.02
2022-12-14T02:03:06.938Z,96707.37
2022-12-14T02:05:42.961Z,96705.75
2022-12-14T02:08:13.110Z,96702.77
2022-12-14T02:10:43.112Z,96697.03
2022-12-14T02:13:17.578Z,96695.41
2022-12-14T02:15:48.740Z,96700.05
2022-12-14T02:18:22.765Z,96710.11
2022-12-14T02:21:24.128Z,96719.94
2022-12-14T02:24:13.860Z,96718.31
2022-12-14T02:26:49.845Z,96721.56
2022-12-14T02:29:54.184Z,96725.13
2022-12-14T02:32:32.461Z,96724.58
2022-12-14T02:35:12.433Z,96723.48
2022-12-14T02:37:49.061Z,96724.84
2022-12-14T02:40:30.994Z,96732.77
2022-12-14T02:43:12.757Z,96739.03
2022-12-14T02:45:46.243Z,96737.66
2022-12-14T02:48:20.426Z,96737.41
2022-12-14T02:50:53.421Z,96741.50
2022-12-14T02:53:34.828Z,96739.58
2022-12-14T02:56:07.141Z,96745.03
2022-12-14T02:58:43.850Z,96743.93
2022-12-14T03:01:17.081Z,96743.12
2022-12-14T03:03:47.250Z,96749.67
2022-12-14T03:06:29.833Z,96751.59
2022-12-14T03:09:12.675Z,96754.02
2022-12-14T03:11:57.593Z,96756.48
2022-12-14T03:14:30.295Z,96757.03
2022-12-14T03:17:04.073Z,96762.19
2022-12-14T03:19:44.897Z,96763.00
2022-12-14T03:22:19.288Z,96757.28
2022-12-14T03:24:52.578Z,96758.35
2022-12-14T03:27:31.705Z,96754.00
2022-12-14T03:30:23.768Z,96756.98
2022-12-14T03:32:56.302Z,96758.59
2022-12-14T03:35:31.875Z,96759.94
2022-12-14T03:50:57.547Z,96751.97
2022-12-14T03:53:39.926Z,96755.50
2022-12-14T03:56:15.609Z,96755.79
2022-12-14T03:59:07.748Z,96756.06
2022-12-14T04:02:07.977Z,96754.70
2022-12-14T04:04:47.241Z,96757.70
2022-12-14T04:07:26.165Z,96755.27
2022-12-14T04:10:04.987Z,96753.09
2022-12-14T04:12:55.882Z,96746.00
2022-12-14T04:15:49.115Z,96742.46
2022-12-14T04:18:40.246Z,96731.02
2022-12-14T04:21:21.744Z,96725.56
2022-12-14T04:24:11.601Z,96738.91
2022-12-14T04:26:44.599Z,96738.64
2022-12-14T04:29:33.839Z,96731.54
2022-12-14T04:32:17.888Z,96740.02
2022-12-14T04:34:48.900Z,96734.27
2022-12-14T04:37:20.072Z,96740.83
2022-12-14T04:39:55.315Z,96732.65
2022-12-14T04:42:28.491Z,96731.84
2022-12-14T04:45:01.447Z,96728.02
2022-12-14T04:47:39.774Z,96719.83
2022-12-14T04:50:15.595Z,96744.92
2022-12-14T04:52:54.323Z,96732.40
2022-12-14T04:55:36.936Z,96724.77
2022-12-14T04:58:20.023Z,96733.77
2022-12-14T05:01:12.606Z,96726.95
2022-12-14T05:03:57.444Z,96737.56
2022-12-14T05:06:31.936Z,96717.42
2022-12-14T05:09:15.320Z,96719.87
2022-12-14T05:11:55.685Z,96728.33
2022-12-14T05:14:40.876Z,96729.95
2022-12-14T05:17:11.105Z,96738.14
2022-12-14T05:19:49.175Z,96728.34
2022-12-14T05:22:19.458Z,96728.08
2022-12-14T05:24:54.204Z,96739.25
2022-12-14T05:27:24.993Z,96748.53
2022-12-14T05:29:56.338Z,96747.44
2022-12-14T05:32:32.549Z,96756.71
2022-12-14T05:35:03.547Z,96764.34
2022-12-14T05:37:33.899Z,96759.44
2022-12-14T05:40:04.206Z,96770.05
2022-12-14T05:42:37.148Z,96778.78
2022-12-14T05:45:06.425Z,96779.89
2022-12-14T05:47:38.977Z,96785.60
2022-12-14T05:50:10.589Z,96792.16
2022-12-14T05:52:40.582Z,96786.41
2022-12-14T05:55:13.898Z,96786.70
2022-12-14T05:57:44.655Z,96789.17
2022-12-14T06:00:15.765Z,96794.89
2022-12-14T06:02:46.153Z,96791.61
2022-12-14T06:05:16.971Z,96797.35
2022-12-14T06:07:48.285Z,96795.15
2022-12-14T06:10:19.471Z,96801.96
2022-12-14T06:12:50.315Z,96809.88
2022-12-14T06:15:20.456Z,96820.52
2022-12-14T06:17:52.017Z,96822.69
2022-12-14T06:20:24.659Z,96825.97
2022-12-14T06:22:59.968Z,96853.47
2022-12-14T06:25:30.266Z,96860.57
2022-12-14T06:28:04.859Z,96871.18
2022-12-14T06:30:35.017Z,96866.02
2022-12-14T06:33:06.217Z,96873.90
2022-12-14T06:35:38.235Z,96875.55
2022-12-14T06:38:09.763Z,96875.55
2022-12-14T06:40:40.368Z,96877.17
2022-12-14T06:43:10.984Z,96875.00
2022-12-14T06:45:40.975Z,96882.91
2022-12-14T06:48:11.079Z,96894.88
2022-12-14T06:50:43.982Z,96906.87
2022-12-14T06:53:18.411Z,96905.25
2022-12-14T06:55:50.596Z,96900.61
2022-12-14T06:58:20.695Z,96898.42
2022-12-14T07:00:51.230Z,96891.33
2022-12-14T07:03:21.305Z,96888.08
2022-12-14T07:05:52.070Z,96890.80
2022-12-14T07:08:23.405Z,96891.06
2022-12-14T07:10:58.915Z,96889.44
2022-12-14T07:13:27.361Z,96885.83
2022-12-14T07:15:59.793Z,96877.39
2022-12-14T07:18:30.902Z,96878.76
2022-12-14T07:21:02.047Z,96879.56
2022-12-14T07:23:34.318Z,96887.47
2022-12-14T07:26:15.433Z,96898.11
2022-12-14T07:28:46.058Z,96902.18
2022-12-14T07:31:20.923Z,96901.89
2022-12-14T07:33:51.216Z,96902.69
2022-12-14T07:36:21.890Z,96913.87
2022-12-14T07:38:52.403Z,96907.05
2022-12-14T07:41:23.951Z,96922.58
2022-12-14T07:43:55.964Z,96928.28
2022-12-14T07:46:28.352Z,96926.36
2022-12-14T07:48:58.958Z,96941.62
2022-12-14T07:51:30.626Z,96929.92
2022-12-14T07:54:01.046Z,96926.64
2022-12-14T07:56:32.938Z,96941.34
2022-12-14T07:59:04.429Z,96945.14
2022-12-14T08:01:36.583Z,96950.31
2022-12-14T08:04:11.247Z,96929.34
2022-12-14T08:06:41.370Z,96934.22
2022-12-14T08:09:11.694Z,96933.41
2022-12-14T08:11:41.858Z,96941.02
2022-12-14T08:14:14.420Z,96937.22
2022-12-14T08:16:44.557Z,96945.94
2022-12-14T08:19:14.643Z,96942.92
2022-12-14T08:21:46.274Z,96930.11
2022-12-14T08:24:18.377Z,96923.04
2022-12-14T08:26:49.733Z,96934.73
2022-12-14T08:29:20.254Z,96939.36
2022-12-14T08:31:50.759Z,96923.02
2022-12-14T08:34:22.606Z,96937.72
2022-12-14T08:36:53.253Z,96938.52
2022-12-14T08:39:25.959Z,96951.57
2022-12-14T08:41:56.711Z,96974.98
2022-12-14T08:44:27.167Z,96967.88
2022-12-14T08:46:58.847Z,96955.34
2022-12-14T08:49:32.430Z,96958.63
2022-12-14T08:52:02.203Z,96961.34
2022-12-14T08:54:34.705Z,96963.80
2022-12-14T08:57:07.248Z,96982.30
2022-12-14T09:00:00.929Z,96991.25
2022-12-14T09:02:10.514Z,96983.34
2022-12-14T09:04:40.769Z,96959.13
2022-12-14T09:07:12.611Z,96958.32
2022-12-14T09:09:43.214Z,96945.52
2022-12-14T09:12:14.460Z,96962.09
2022-12-14T09:14:45.916Z,96963.73
2022-12-14T09:17:18.800Z,96968.06
2022-12-14T09:19:49.471Z,96952.83
2022-12-14T09:22:19.559Z,96981.65
2022-12-14T09:24:53.037Z,96975.94
2022-12-14T09:27:24.994Z,96987.04
2022-12-14T09:29:56.614Z,97003.64
2022-12-14T09:32:27.044Z,97004.69
2022-12-14T09:34:57.375Z,96982.11
2022-12-14T09:37:28.694Z,96984.81
2022-12-14T09:39:59.087Z,96977.18
2022-12-14T09:42:51.255Z,96976.37
2022-12-14T09:45:33.418Z,96986.69
2022-12-14T09:48:22.786Z,96997.84
2022-12-14T09:50:53.394Z,97015.52
2022-12-14T09:53:24.552Z,97007.06
2022-12-14T09:55:58.950Z,97009.76
2022-12-14T09:58:31.183Z,97014.39
2022-12-14T10:01:25.321Z,97006.20
2022-12-14T10:03:58.469Z,96997.23
2022-12-14T10:06:44.379Z,97004.83
2022-12-14T10:09:38.021Z,97027.41
2022-12-14T10:12:34.401Z,97015.66
2022-12-14T10:15:24.994Z,97018.11
2022-12-14T10:18:05.719Z,97013.20
2022-12-14T10:20:41.497Z,97003.09
2022-12-14T10:23:22.422Z,96989.78
2022-12-14T10:25:49.319Z,96972.09
2022-12-14T10:28:22.742Z,96974.80
2022-12-14T10:30:53.060Z,96994.38
2022-12-14T10:33:29.180Z,96982.37
2022-12-14T10:36:02.596Z,96960.05
2022-12-14T10:38:45.689Z,96967.92
2022-12-14T10:41:25.817Z,96970.09
2022-12-14T12:22:36.374Z,97069.83
2022-12-14T12:27:38.665Z,97075.33
2022-12-14T12:30:19.049Z,97077.55
2022-12-14T12:32:50.698Z,97056.89
2022-12-14T12:35:26.910Z,97075.48
2022-12-14T12:38:05.899Z,97082.05
2022-12-14T12:40:44.481Z,97073.89
2022-12-14T12:43:20.562Z,97066.29
2022-12-14T12:46:02.105Z,97071.47
2022-12-14T12:48:49.013Z,97076.94
2022-12-14T12:51:30.829Z,97090.58
2022-12-14T12:54:03.442Z,97102.86
2022-12-14T12:56:48.476Z,97109.14
2022-12-14T12:59:30.273Z,97111.59
2022-12-14T13:02:03.520Z,97110.79
2022-12-14T13:04:41.261Z,97101.01
2022-12-14T13:07:26.312Z,97115.17
2022-12-14T13:10:05.770Z,97122.56
2022-12-14T13:12:37.196Z,97121.50
2022-12-14T13:15:09.368Z,97104.88
2022-12-14T13:17:43.568Z,97105.42
2022-12-14T13:20:27.647Z,97098.08
2022-12-14T13:23:05.706Z,97100.81
2022-12-14T13:25:50.941Z,97118.27
2022-12-14T13:28:38.825Z,97133.82
2022-12-14T13:31:21.699Z,97149.36
2022-12-14T13:34:00.569Z,97147.75
2022-12-14T13:36:52.300Z,97145.29
2022-12-14T13:43:03.390Z,97137.38
2022-12-14T13:45:36.327Z,97135.20
2022-12-14T13:48:12.077Z,97154.05
2022-12-14T13:50:55.975Z,97146.67
2022-12-14T13:53:17.415Z,97146.67
2022-12-14T13:55:54.225Z,97152.39
2022-12-14T13:58:38.164Z,97158.96
2022-12-14T14:01:15.283Z,97159.78
2022-12-14T14:03:54.775Z,97156.50
2022-12-14T14:06:39.765Z,97179.97
2022-12-14T14:09:28.463Z,97160.33
2022-12-14T14:15:36.826Z,97154.88
2022-12-14T14:18:16.296Z,97163.62
2022-12-14T14:20:58.884Z,97180.00
2022-12-14T14:23:28.958Z,97162.52
2022-12-14T14:26:19.567Z,97169.08
2022-12-14T14:28:53.067Z,97169.08
2022-12-14T14:31:24.243Z,97183.80
2022-12-14T14:33:59.362Z,97185.46
2022-12-14T14:36:34.389Z,97175.06
2022-12-14T14:39:24.428Z,97171.25
2022-12-14T14:41:42.234Z,97171.25
2022-12-14T14:44:32.495Z,97167.16
2022-12-14T14:47:07.538Z,97155.38
2022-12-14T14:49:42.434Z,97152.94
2022-12-14T14:52:43.536Z,97163.02
2022-12-14T14:55:54.713Z,97160.84
2022-12-14T14:58:33.152Z,97167.11
2022-12-14T15:01:21.659Z,97181.61
2022-12-14T15:04:00.804Z,97178.03
2022-12-14T15:06:37.040Z,97168.20
2022-12-14T15:09:21.323Z,97161.63
2022-12-14T15:11:55.946Z,97172.86
2022-12-14T15:14:48.805Z,97185.71
2022-12-14T15:17:23.511Z,97184.88
2022-12-14T15:20:02.026Z,97199.09
2022-12-14T15:22:35.710Z,97199.09
2022-12-14T15:25:06.575Z,97188.16
2022-12-14T15:27:38.838Z,97190.92
2022-12-14T15:30:17.773Z,97188.71
2022-12-14T15:33:04.671Z,97178.63
2022-12-14T15:35:26.533Z,97173.98
2022-12-14T15:38:00.436Z,97174.54
2022-12-14T15:40:50.266Z,97173.17
2022-12-14T15:43:28.562Z,97180.27
2022-12-14T15:46:06.435Z,97190.64
2022-12-14T15:48:37.266Z,97195.58
2022-12-14T15:51:16.894Z,97192.00
2022-12-14T15:53:50.428Z,97190.11
2022-12-14T15:56:34.882Z,97182.18
2022-12-14T15:59:06.996Z,97201.59
2022-12-14T16:01:55.079Z,97207.56
2022-12-14T16:04:26.672Z,97205.13
2022-12-14T16:09:50.359Z,97205.68
2022-12-14T16:12:21.793Z,97198.84
2022-12-14T16:14:55.390Z,97202.65
2022-12-14T16:17:39.024Z,97204.86
2022-12-14T16:20:33.098Z,97207.59
2022-12-14T16:23:18.229Z,97208.66
2022-12-14T16:26:05.804Z,97209.73
2022-12-14T16:28:36.764Z,97220.09
2022-12-14T16:31:15.458Z,97225.55
2022-12-14T16:33:46.483Z,97222.27
2022-12-14T16:36:25.187Z,97210.01
2022-12-14T16:39:14.342Z,97215.17
2022-12-14T16:41:50.571Z,97224.46
2022-12-14T16:44:35.454Z,97223.91
2022-12-14T16:47:17.343Z,97218.18
2022-12-14T16:50:00.501Z,97220.34
2022-12-14T16:52:34.408Z,97221.97
2022-12-14T16:55:22.087Z,97222.81
2022-12-14T16:58:03.274Z,97222.80
2022-12-14T17:00:37.224Z,97226.34
2022-12-14T17:03:10.581Z,97216.79
2022-12-14T17:05:43.832Z,97218.42
2022-12-14T17:08:14.010Z,97217.90
2022-12-14T17:10:45.720Z,97214.33
2022-12-14T17:13:15.877Z,97217.06
2022-12-14T17:16:03.950Z,97210.53
2022-12-14T17:18:45.995Z,97206.97
2022-12-14T17:21:27.787Z,97210.25
2022-12-14T17:23:59.901Z,97204.53
2022-12-14T17:26:32.705Z,97205.91
2022-12-14T17:29:02.728Z,97208.90
2022-12-14T17:31:32.916Z,97206.43
2022-12-14T17:34:04.371Z,97205.36
2022-12-14T17:36:35.623Z,97203.16
2022-12-14T17:39:07.234Z,97198.55
2022-12-14T17:41:37.437Z,97198.55
2022-12-14T17:44:07.714Z,97193.35
2022-12-14T17:46:38.156Z,97192.58
2022-12-14T17:49:08.939Z,97190.66
2022-12-14T17:51:41.693Z,97186.27
2022-12-14T17:54:17.749Z,97189.55
2022-12-14T17:56:49.758Z,97192.84
2022-12-14T17:59:21.346Z,97176.45
2022-12-14T18:01:52.133Z,97182.99
2022-12-14T18:04:22.728Z,97172.07
2022-12-14T18:06:56.092Z,97169.08
2022-12-14T18:09:26.961Z,97166.05
2022-12-14T18:12:22.287Z,97165.24
2022-12-14T18:14:35.072Z,97163.32
2022-12-14T18:17:09.774Z,97155.94
2022-12-14T18:19:38.591Z,97153.77
2022-12-14T18:22:08.965Z,97149.15
2022-12-14T18:24:39.104Z,97148.30
2022-12-14T18:27:10.949Z,97143.40
2022-12-14T18:29:40.814Z,97145.86
2022-12-14T18:32:14.909Z,97144.77
2022-12-14T18:34:46.208Z,97135.50
2022-12-14T18:37:22.855Z,97145.61
2022-12-14T18:39:51.176Z,97136.86
2022-12-14T18:42:22.806Z,97133.84
2022-12-14T18:44:53.409Z,97129.75
2022-12-14T18:47:41.100Z,97124.84
2022-12-14T18:49:57.787Z,97128.67
2022-12-14T18:52:30.294Z,97123.47
2022-12-14T18:55:00.898Z,97121.84
2022-12-14T18:57:31.052Z,97122.41
2022-12-14T19:00:04.824Z,97129.78
2022-12-14T19:02:36.033Z,97121.84
2022-12-14T19:05:06.268Z,97120.72
2022-12-14T19:07:36.483Z,97116.91
2022-12-14T19:10:08.007Z,97111.19
2022-12-14T19:12:40.163Z,97106.55
2022-12-14T19:15:14.600Z,97095.63
2022-12-14T19:17:49.738Z,97097.80
2022-12-14T19:20:21.272Z,97089.06
2022-12-14T19:22:53.106Z,97095.33
2022-12-14T19:25:25.330Z,97094.27
2022-12-14T19:30:33.701Z,97092.64
2022-12-14T19:33:05.458Z,97084.16
2022-12-14T19:35:40.589Z,97076.78
2022-12-14T19:38:17.569Z,97075.16
2022-12-14T19:40:50.966Z,97075.16
2022-12-14T19:43:23.696Z,97073.24
2022-12-14T19:45:57.608Z,97069.44
2022-12-14T19:48:29.883Z,97068.63
2022-12-14T19:51:02.480Z,97066.71
2022-12-14T19:53:38.302Z,97056.05
2022-12-14T19:56:15.155Z,97058.52
2022-12-14T19:58:46.800Z,97051.15
2022-12-14T20:01:19.138Z,97049.52
2022-12-14T20:03:50.816Z,97046.50
2022-12-14T20:06:22.075Z,97045.14
2022-12-14T20:08:52.887Z,97044.59
2022-12-14T20:11:23.138Z,97038.06
2022-12-14T20:13:57.395Z,97040.52
2022-12-14T20:16:25.128Z,97038.88
2022-12-14T20:18:57.127Z,97044.33
2022-12-14T20:21:30.096Z,97050.08
2022-12-14T20:24:00.615Z,97044.33
2022-12-14T20:26:30.657Z,97044.33
2022-12-14T20:29:02.422Z,97047.05
2022-12-14T20:31:34.755Z,97043.25
2022-12-14T20:34:06.298Z,97042.70
2022-12-14T20:36:36.794Z,97049.27
2022-12-14T20:39:06.797Z,97053.36
2022-12-14T20:41:37.902Z,97054.42
2022-12-14T20:44:12.083Z,97054.17
2022-12-14T20:46:46.413Z,97056.60
2022-12-14T20:49:21.137Z,97053.61
2022-12-14T20:51:51.431Z,97050.89
2022-12-14T20:54:23.044Z,97032.88
2022-12-14T20:56:53.004Z,97048.97
2022-12-14T20:59:23.872Z,97041.08
2022-12-14T21:01:58.431Z,97036.43
2022-12-14T21:04:30.420Z,97041.34
2022-12-14T21:07:01.478Z,97044.06
2022-12-14T21:09:31.968Z,97047.59
2022-12-14T21:12:19.530Z,97048.15
2022-12-14T21:14:57.637Z,97053.34
2022-12-14T21:17:34.493Z,97061.27
2022-12-14T21:20:06.184Z,97057.69
2022-12-14T21:22:36.665Z,97067.78
2022-12-14T21:25:07.664Z,97069.95
2022-12-14T21:27:42.379Z,97079.50
2022-12-14T21:30:13.818Z,97086.62
2022-12-14T21:32:44.584Z,97071.63
2022-12-14T21:35:16.080Z,97078.16
2022-12-14T21:37:48.941Z,97082.25
2022-12-14T21:40:21.005Z,97085.80
2022-12-14T21:42:52.329Z,97084.98
2022-12-14T21:45:22.935Z,97091.55
2022-12-14T21:47:52.943Z,97093.73
2022-12-14T21:50:23.068Z,97098.64
2022-12-14T21:52:53.459Z,97094.00
2022-12-14T21:55:23.306Z,97094.26
2022-12-14T21:58:10.785Z,97091.82
2022-12-14T22:00:41.685Z,97089.09
2022-12-14T22:03:11.687Z,97088.25
2022-12-14T22:05:41.727Z,97089.36
2022-12-14T22:08:15.671Z,97093.16
2022-12-14T22:10:48.402Z,97096.17
2022-12-14T22:13:19.727Z,97099.17
2022-12-14T22:15:50.101Z,97104.36
2022-12-14T22:18:20.274Z,97113.11
2022-12-14T22:20:50.494Z,97110.38
2022-12-14T22:23:23.869Z,97110.92
2022-12-14T22:25:54.151Z,97113.65
2022-12-14T22:28:24.785Z,97121.84
2022-12-14T22:30:56.093Z,97113.09
2022-12-14T22:33:27.135Z,97118.81
2022-12-14T22:35:59.350Z,97127.00
2022-12-14T22:38:31.399Z,97119.06
2022-12-14T22:41:06.204Z,97119.87
2022-12-14T22:43:37.577Z,97127.25
2022-12-14T22:46:08.161Z,97134.08
2022-12-14T22:48:41.658Z,97130.83
2022-12-14T22:51:12.996Z,97127.81
2022-12-14T22:53:44.259Z,97136.30
2022-12-14T22:56:31.121Z,97131.09
2022-12-14T22:59:07.571Z,97140.39
2022-12-14T23:01:38.359Z,97135.75
2022-12-14T23:04:09.519Z,97149.41
2022-12-14T23:06:40.442Z,97147.48
2022-12-14T23:09:28.359Z,97154.31
2022-12-14T23:12:21.606Z,97159.52
2022-12-14T23:15:06.986Z,97157.60
2022-12-14T23:17:56.851Z,97157.86
2022-12-14T23:20:48.703Z,97159.52
2022-12-14T23:23:37.426Z,97159.52
2022-12-14T23:26:24.940Z,97160.63
2022-12-14T23:29:14.948Z,97166.09
2022-12-14T23:32:03.262Z,97174.28
2022-12-14T23:34:52.925Z,97172.36
2022-12-14T23:37:40.585Z,97171.25
2022-12-14T23:40:29.516Z,97177.01
2022-12-14T23:43:17.833Z,97182.17
2022-12-14T23:46:05.081Z,97179.19
2022-12-14T23:48:54.561Z,97185.75
2022-12-14T23:51:43.524Z,97180.55
2022-12-14T23:54:32.075Z,97175.34
2022-12-14T23:57:20.430Z,97171.55
